sensor_id;sensor_type;location;lat;lon;timestamp;P1;durP1;ratioP1;P2;durP2;ratioP2
8640;SDS011;4358;42.100;25.222;2023-02-01T00:00:25;8.00;;;2.90;;
8640;SDS011;4358;42.100;25.222;2023-02-01T00:02:52;3.53;;;2.97;;
8640;SDS011;4358;42.100;25.222;2023-02-01T00:05:18;6.80;;;3.07;;
8640;SDS011;4358;42.100;25.222;2023-02-01T00:07:46;5.30;;;3.40;;
8640;SDS011;4358;42.100;25.222;2023-02-01T00:10:13;5.27;;;2.90;;
8640;SDS011;4358;42.100;25.222;2023-02-01T00:12:40;4.70;;;2.40;;
8640;SDS011;4358;42.100;25.222;2023-02-01T00:15:09;4.37;;;2.60;;
8640;SDS011;4358;42.100;25.222;2023-02-01T00:17:36;3.07;;;2.60;;
8640;SDS011;4358;42.100;25.222;2023-02-01T00:20:04;4.20;;;2.40;;
8640;SDS011;4358;42.100;25.222;2023-02-01T00:22:31;7.67;;;2.50;;
8640;SDS011;4358;42.100;25.222;2023-02-01T00:24:58;6.77;;;2.37;;
8640;SDS011;4358;42.100;25.222;2023-02-01T00:27:25;5.47;;;2.47;;
8640;SDS011;4358;42.100;25.222;2023-02-01T00:29:53;3.10;;;2.40;;
8640;SDS011;4358;42.100;25.222;2023-02-01T00:32:21;3.27;;;2.27;;
8640;SDS011;4358;42.100;25.222;2023-02-01T00:34:48;3.77;;;2.40;;
8640;SDS011;4358;42.100;25.222;2023-02-01T00:37:15;3.63;;;2.67;;
8640;SDS011;4358;42.100;25.222;2023-02-01T00:39:42;4.00;;;2.50;;
8640;SDS011;4358;42.100;25.222;2023-02-01T00:42:09;3.80;;;2.67;;
8640;SDS011;4358;42.100;25.222;2023-02-01T00:44:36;7.57;;;3.03;;
8640;SDS011;4358;42.100;25.222;2023-02-01T00:47:02;5.93;;;3.40;;
8640;SDS011;4358;42.100;25.222;2023-02-01T00:49:30;5.33;;;3.13;;
8640;SDS011;4358;42.100;25.222;2023-02-01T00:51:57;7.80;;;3.07;;
8640;SDS011;4358;42.100;25.222;2023-02-01T00:54:25;6.43;;;2.77;;
8640;SDS011;4358;42.100;25.222;2023-02-01T00:56:52;3.43;;;2.40;;
8640;SDS011;4358;42.100;25.222;2023-02-01T00:59:19;3.73;;;2.10;;
8640;SDS011;4358;42.100;25.222;2023-02-01T01:01:46;3.13;;;2.13;;
8640;SDS011;4358;42.100;25.222;2023-02-01T01:04:12;2.97;;;1.93;;
8640;SDS011;4358;42.100;25.222;2023-02-01T01:06:41;3.03;;;2.00;;
8640;SDS011;4358;42.100;25.222;2023-02-01T01:09:08;4.13;;;2.10;;
8640;SDS011;4358;42.100;25.222;2023-02-01T01:11:37;3.73;;;2.07;;
8640;SDS011;4358;42.100;25.222;2023-02-01T01:14:05;3.60;;;2.17;;
8640;SDS011;4358;42.100;25.222;2023-02-01T01:16:32;1.57;;;1.37;;
8640;SDS011;4358;42.100;25.222;2023-02-01T01:18:59;1.40;;;1.30;;
8640;SDS011;4358;42.100;25.222;2023-02-01T01:21:27;1.90;;;1.53;;
8640;SDS011;4358;42.100;25.222;2023-02-01T01:23:55;2.20;;;1.20;;
8640;SDS011;4358;42.100;25.222;2023-02-01T01:26:23;3.20;;;1.53;;
8640;SDS011;4358;42.100;25.222;2023-02-01T01:28:51;1.40;;;1.20;;
8640;SDS011;4358;42.100;25.222;2023-02-01T01:31:19;1.63;;;1.10;;
8640;SDS011;4358;42.100;25.222;2023-02-01T01:33:47;2.67;;;1.90;;
8640;SDS011;4358;42.100;25.222;2023-02-01T01:36:15;2.27;;;1.30;;
8640;SDS011;4358;42.100;25.222;2023-02-01T01:38:42;0.63;;;0.63;;
8640;SDS011;4358;42.100;25.222;2023-02-01T01:41:11;1.23;;;1.17;;
8640;SDS011;4358;42.100;25.222;2023-02-01T01:43:50;1.10;;;1.00;;
8640;SDS011;4358;42.100;25.222;2023-02-01T01:46:19;1.87;;;1.70;;
8640;SDS011;4358;42.100;25.222;2023-02-01T01:48:48;0.90;;;0.90;;
8640;SDS011;4358;42.100;25.222;2023-02-01T01:51:19;2.47;;;1.50;;
8640;SDS011;4358;42.100;25.222;2023-02-01T01:53:51;2.07;;;1.53;;
8640;SDS011;4358;42.100;25.222;2023-02-01T01:56:25;2.47;;;1.67;;
8640;SDS011;4358;42.100;25.222;2023-02-01T01:58:54;2.27;;;1.83;;
8640;SDS011;4358;42.100;25.222;2023-02-01T02:01:22;2.90;;;1.67;;
8640;SDS011;4358;42.100;25.222;2023-02-01T02:03:49;1.87;;;1.50;;
8640;SDS011;4358;42.100;25.222;2023-02-01T02:06:20;2.20;;;1.60;;
8640;SDS011;4358;42.100;25.222;2023-02-01T02:08:54;2.23;;;1.90;;
8640;SDS011;4358;42.100;25.222;2023-02-01T02:11:21;2.47;;;1.20;;
8640;SDS011;4358;42.100;25.222;2023-02-01T02:13:50;2.50;;;1.27;;
8640;SDS011;4358;42.100;25.222;2023-02-01T02:16:21;3.30;;;1.60;;
8640;SDS011;4358;42.100;25.222;2023-02-01T02:22:41;1.80;;;1.43;;
8640;SDS011;4358;42.100;25.222;2023-02-01T02:25:24;2.27;;;1.43;;
8640;SDS011;4358;42.100;25.222;2023-02-01T02:28:13;2.47;;;1.47;;
8640;SDS011;4358;42.100;25.222;2023-02-01T02:31:09;2.00;;;1.43;;
8640;SDS011;4358;42.100;25.222;2023-02-01T02:33:59;2.83;;;1.13;;
8640;SDS011;4358;42.100;25.222;2023-02-01T02:36:36;2.50;;;1.30;;
8640;SDS011;4358;42.100;25.222;2023-02-01T02:39:12;2.53;;;1.83;;
8640;SDS011;4358;42.100;25.222;2023-02-01T02:41:48;2.57;;;1.60;;
8640;SDS011;4358;42.100;25.222;2023-02-01T02:44:41;2.60;;;1.60;;
8640;SDS011;4358;42.100;25.222;2023-02-01T02:47:33;1.60;;;1.47;;
8640;SDS011;4358;42.100;25.222;2023-02-01T02:50:17;3.23;;;1.83;;
8640;SDS011;4358;42.100;25.222;2023-02-01T02:53:10;2.40;;;1.53;;
8640;SDS011;4358;42.100;25.222;2023-02-01T02:55:58;2.27;;;1.83;;
8640;SDS011;4358;42.100;25.222;2023-02-01T02:58:43;3.07;;;1.70;;
8640;SDS011;4358;42.100;25.222;2023-02-01T03:01:29;2.00;;;1.37;;
8640;SDS011;4358;42.100;25.222;2023-02-01T03:04:14;2.20;;;1.40;;
8640;SDS011;4358;42.100;25.222;2023-02-01T03:06:44;2.73;;;1.60;;
8640;SDS011;4358;42.100;25.222;2023-02-01T03:09:13;1.40;;;1.30;;
8640;SDS011;4358;42.100;25.222;2023-02-01T03:11:45;2.13;;;1.60;;
8640;SDS011;4358;42.100;25.222;2023-02-01T03:14:32;1.40;;;1.20;;
8640;SDS011;4358;42.100;25.222;2023-02-01T03:17:03;1.77;;;1.30;;
8640;SDS011;4358;42.100;25.222;2023-02-01T03:19:35;1.50;;;1.40;;
8640;SDS011;4358;42.100;25.222;2023-02-01T03:22:10;1.57;;;1.47;;
8640;SDS011;4358;42.100;25.222;2023-02-01T03:24:41;1.40;;;1.13;;
8640;SDS011;4358;42.100;25.222;2023-02-01T03:27:11;1.33;;;1.17;;
8640;SDS011;4358;42.100;25.222;2023-02-01T03:29:44;1.53;;;1.13;;
8640;SDS011;4358;42.100;25.222;2023-02-01T03:32:14;1.87;;;1.43;;
8640;SDS011;4358;42.100;25.222;2023-02-01T03:34:42;1.77;;;1.30;;
8640;SDS011;4358;42.100;25.222;2023-02-01T03:37:11;1.90;;;1.47;;
8640;SDS011;4358;42.100;25.222;2023-02-01T03:39:44;1.60;;;1.50;;
8640;SDS011;4358;42.100;25.222;2023-02-01T03:42:16;1.40;;;1.30;;
8640;SDS011;4358;42.100;25.222;2023-02-01T03:44:46;1.70;;;1.30;;
8640;SDS011;4358;42.100;25.222;2023-02-01T03:47:18;2.33;;;1.60;;
8640;SDS011;4358;42.100;25.222;2023-02-01T03:49:49;1.23;;;1.13;;
8640;SDS011;4358;42.100;25.222;2023-02-01T03:52:22;1.80;;;1.27;;
8640;SDS011;4358;42.100;25.222;2023-02-01T03:54:51;1.63;;;1.10;;
8640;SDS011;4358;42.100;25.222;2023-02-01T03:57:21;2.00;;;1.70;;
8640;SDS011;4358;42.100;25.222;2023-02-01T03:59:52;1.50;;;1.40;;
8640;SDS011;4358;42.100;25.222;2023-02-01T04:02:19;1.43;;;1.07;;
8640;SDS011;4358;42.100;25.222;2023-02-01T04:04:46;1.80;;;1.63;;
8640;SDS011;4358;42.100;25.222;2023-02-01T04:07:13;1.87;;;1.43;;
8640;SDS011;4358;42.100;25.222;2023-02-01T04:09:41;1.37;;;1.27;;
8640;SDS011;4358;42.100;25.222;2023-02-01T04:12:08;2.47;;;1.23;;
8640;SDS011;4358;42.100;25.222;2023-02-01T04:14:34;3.03;;;1.60;;
8640;SDS011;4358;42.100;25.222;2023-02-01T04:17:01;1.50;;;1.03;;
8640;SDS011;4358;42.100;25.222;2023-02-01T04:19:28;1.90;;;1.40;;
8640;SDS011;4358;42.100;25.222;2023-02-01T04:21:55;1.40;;;1.30;;
8640;SDS011;4358;42.100;25.222;2023-02-01T04:24:22;1.63;;;1.37;;
8640;SDS011;4358;42.100;25.222;2023-02-01T04:26:50;1.67;;;1.30;;
8640;SDS011;4358;42.100;25.222;2023-02-01T04:29:17;1.30;;;1.20;;
8640;SDS011;4358;42.100;25.222;2023-02-01T04:31:44;1.50;;;1.40;;
8640;SDS011;4358;42.100;25.222;2023-02-01T04:34:11;2.03;;;1.53;;
8640;SDS011;4358;42.100;25.222;2023-02-01T04:36:38;2.73;;;1.80;;
8640;SDS011;4358;42.100;25.222;2023-02-01T04:39:04;5.27;;;1.83;;
8640;SDS011;4358;42.100;25.222;2023-02-01T04:41:31;1.87;;;1.70;;
8640;SDS011;4358;42.100;25.222;2023-02-01T04:44:00;2.30;;;2.10;;
8640;SDS011;4358;42.100;25.222;2023-02-01T04:46:26;2.20;;;1.50;;
8640;SDS011;4358;42.100;25.222;2023-02-01T04:48:53;6.63;;;2.10;;
8640;SDS011;4358;42.100;25.222;2023-02-01T04:51:20;3.13;;;1.87;;
8640;SDS011;4358;42.100;25.222;2023-02-01T04:53:47;3.67;;;1.60;;
8640;SDS011;4358;42.100;25.222;2023-02-01T04:56:14;1.93;;;1.70;;
8640;SDS011;4358;42.100;25.222;2023-02-01T04:58:40;4.53;;;2.30;;
8640;SDS011;4358;42.100;25.222;2023-02-01T05:01:09;4.03;;;1.83;;
8640;SDS011;4358;42.100;25.222;2023-02-01T05:03:35;2.73;;;1.83;;
8640;SDS011;4358;42.100;25.222;2023-02-01T05:06:02;2.20;;;1.70;;
8640;SDS011;4358;42.100;25.222;2023-02-01T05:08:30;2.73;;;1.80;;
8640;SDS011;4358;42.100;25.222;2023-02-01T05:10:58;1.97;;;1.60;;
8640;SDS011;4358;42.100;25.222;2023-02-01T05:13:27;2.33;;;2.00;;
8640;SDS011;4358;42.100;25.222;2023-02-01T05:16:13;5.17;;;2.27;;
8640;SDS011;4358;42.100;25.222;2023-02-01T05:18:39;2.63;;;1.67;;
8640;SDS011;4358;42.100;25.222;2023-02-01T05:21:06;2.53;;;1.73;;
8640;SDS011;4358;42.100;25.222;2023-02-01T05:23:33;2.40;;;1.60;;
8640;SDS011;4358;42.100;25.222;2023-02-01T05:26:20;2.07;;;1.53;;
8640;SDS011;4358;42.100;25.222;2023-02-01T05:28:47;4.17;;;2.10;;
8640;SDS011;4358;42.100;25.222;2023-02-01T05:31:15;4.03;;;1.60;;
8640;SDS011;4358;42.100;25.222;2023-02-01T05:33:42;2.70;;;2.00;;
8640;SDS011;4358;42.100;25.222;2023-02-01T05:36:09;2.87;;;1.83;;
8640;SDS011;4358;42.100;25.222;2023-02-01T05:38:36;3.00;;;2.00;;
8640;SDS011;4358;42.100;25.222;2023-02-01T05:41:03;2.83;;;1.90;;
8640;SDS011;4358;42.100;25.222;2023-02-01T05:43:30;2.43;;;2.00;;
8640;SDS011;4358;42.100;25.222;2023-02-01T05:45:56;8.13;;;1.80;;
8640;SDS011;4358;42.100;25.222;2023-02-01T05:48:25;3.17;;;1.83;;
8640;SDS011;4358;42.100;25.222;2023-02-01T05:50:52;2.40;;;1.37;;
8640;SDS011;4358;42.100;25.222;2023-02-01T05:53:18;3.67;;;2.10;;
8640;SDS011;4358;42.100;25.222;2023-02-01T05:55:45;2.57;;;1.90;;
8640;SDS011;4358;42.100;25.222;2023-02-01T05:58:12;3.00;;;2.10;;
8640;SDS011;4358;42.100;25.222;2023-02-01T06:00:39;3.17;;;2.17;;
8640;SDS011;4358;42.100;25.222;2023-02-01T06:03:06;3.70;;;2.10;;
8640;SDS011;4358;42.100;25.222;2023-02-01T06:05:35;4.07;;;2.07;;
8640;SDS011;4358;42.100;25.222;2023-02-01T06:08:02;4.60;;;2.20;;
8640;SDS011;4358;42.100;25.222;2023-02-01T06:10:29;4.70;;;2.57;;
8640;SDS011;4358;42.100;25.222;2023-02-01T06:12:56;3.17;;;2.30;;
8640;SDS011;4358;42.100;25.222;2023-02-01T06:15:23;2.60;;;1.90;;
8640;SDS011;4358;42.100;25.222;2023-02-01T06:17:50;3.30;;;1.70;;
8640;SDS011;4358;42.100;25.222;2023-02-01T06:20:17;3.50;;;2.57;;
8640;SDS011;4358;42.100;25.222;2023-02-01T06:22:45;3.07;;;2.07;;
8640;SDS011;4358;42.100;25.222;2023-02-01T06:25:12;2.80;;;1.80;;
8640;SDS011;4358;42.100;25.222;2023-02-01T06:27:39;3.00;;;2.40;;
8640;SDS011;4358;42.100;25.222;2023-02-01T06:30:06;3.43;;;2.40;;
8640;SDS011;4358;42.100;25.222;2023-02-01T06:32:34;3.90;;;2.37;;
8640;SDS011;4358;42.100;25.222;2023-02-01T06:35:01;4.63;;;2.37;;
8640;SDS011;4358;42.100;25.222;2023-02-01T06:37:28;4.73;;;2.60;;
8640;SDS011;4358;42.100;25.222;2023-02-01T06:39:57;3.07;;;2.40;;
8640;SDS011;4358;42.100;25.222;2023-02-01T06:42:23;3.60;;;1.77;;
8640;SDS011;4358;42.100;25.222;2023-02-01T06:44:51;3.20;;;1.93;;
8640;SDS011;4358;42.100;25.222;2023-02-01T06:47:18;2.30;;;1.60;;
8640;SDS011;4358;42.100;25.222;2023-02-01T06:49:44;4.03;;;2.30;;
8640;SDS011;4358;42.100;25.222;2023-02-01T06:52:11;1.97;;;1.70;;
8640;SDS011;4358;42.100;25.222;2023-02-01T06:54:38;1.67;;;1.53;;
8640;SDS011;4358;42.100;25.222;2023-02-01T06:57:06;2.03;;;1.43;;
8640;SDS011;4358;42.100;25.222;2023-02-01T06:59:33;2.67;;;1.87;;
8640;SDS011;4358;42.100;25.222;2023-02-01T07:02:00;6.07;;;2.10;;
8640;SDS011;4358;42.100;25.222;2023-02-01T07:04:27;1.90;;;1.80;;
8640;SDS011;4358;42.100;25.222;2023-02-01T07:06:54;5.13;;;1.60;;
8640;SDS011;4358;42.100;25.222;2023-02-01T07:09:21;1.10;;;0.90;;
8640;SDS011;4358;42.100;25.222;2023-02-01T07:11:48;2.93;;;1.43;;
8640;SDS011;4358;42.100;25.222;2023-02-01T07:14:16;1.93;;;1.77;;
8640;SDS011;4358;42.100;25.222;2023-02-01T07:16:43;2.27;;;1.60;;
8640;SDS011;4358;42.100;25.222;2023-02-01T07:19:10;5.10;;;2.27;;
8640;SDS011;4358;42.100;25.222;2023-02-01T07:21:36;3.13;;;2.20;;
8640;SDS011;4358;42.100;25.222;2023-02-01T07:24:04;4.47;;;2.00;;
8640;SDS011;4358;42.100;25.222;2023-02-01T07:26:31;2.50;;;1.73;;
8640;SDS011;4358;42.100;25.222;2023-02-01T07:28:58;3.63;;;2.20;;
8640;SDS011;4358;42.100;25.222;2023-02-01T07:31:26;4.27;;;2.00;;
8640;SDS011;4358;42.100;25.222;2023-02-01T07:33:54;2.73;;;1.50;;
8640;SDS011;4358;42.100;25.222;2023-02-01T07:36:23;4.20;;;1.73;;
8640;SDS011;4358;42.100;25.222;2023-02-01T07:38:50;2.43;;;1.40;;
8640;SDS011;4358;42.100;25.222;2023-02-01T07:41:17;3.17;;;2.07;;
8640;SDS011;4358;42.100;25.222;2023-02-01T07:43:44;3.30;;;1.80;;
8640;SDS011;4358;42.100;25.222;2023-02-01T07:46:11;3.13;;;1.60;;
8640;SDS011;4358;42.100;25.222;2023-02-01T07:48:41;3.07;;;1.40;;
8640;SDS011;4358;42.100;25.222;2023-02-01T07:51:09;4.83;;;2.00;;
8640;SDS011;4358;42.100;25.222;2023-02-01T07:53:37;1.60;;;1.50;;
8640;SDS011;4358;42.100;25.222;2023-02-01T07:56:08;4.93;;;2.17;;
8640;SDS011;4358;42.100;25.222;2023-02-01T07:58:37;1.20;;;1.10;;
8640;SDS011;4358;42.100;25.222;2023-02-01T08:01:04;1.13;;;1.03;;
8640;SDS011;4358;42.100;25.222;2023-02-01T08:03:47;3.93;;;2.33;;
8640;SDS011;4358;42.100;25.222;2023-02-01T08:06:15;4.00;;;2.27;;
8640;SDS011;4358;42.100;25.222;2023-02-01T08:08:42;2.87;;;2.03;;
8640;SDS011;4358;42.100;25.222;2023-02-01T08:11:10;2.37;;;1.63;;
8640;SDS011;4358;42.100;25.222;2023-02-01T08:13:37;1.13;;;1.03;;
8640;SDS011;4358;42.100;25.222;2023-02-01T08:16:04;2.90;;;1.67;;
8640;SDS011;4358;42.100;25.222;2023-02-01T08:18:33;1.40;;;1.30;;
8640;SDS011;4358;42.100;25.222;2023-02-01T08:21:04;2.33;;;1.13;;
8640;SDS011;4358;42.100;25.222;2023-02-01T08:23:32;4.20;;;1.70;;
8640;SDS011;4358;42.100;25.222;2023-02-01T08:26:06;3.10;;;1.80;;
8640;SDS011;4358;42.100;25.222;2023-02-01T08:28:35;1.47;;;1.07;;
8640;SDS011;4358;42.100;25.222;2023-02-01T08:31:06;1.73;;;1.30;;
8640;SDS011;4358;42.100;25.222;2023-02-01T08:33:33;2.30;;;1.37;;
8640;SDS011;4358;42.100;25.222;2023-02-01T08:36:01;4.77;;;1.57;;
8640;SDS011;4358;42.100;25.222;2023-02-01T08:38:30;2.80;;;1.50;;
8640;SDS011;4358;42.100;25.222;2023-02-01T08:40:56;2.80;;;1.40;;
8640;SDS011;4358;42.100;25.222;2023-02-01T08:43:23;1.90;;;1.40;;
8640;SDS011;4358;42.100;25.222;2023-02-01T08:45:53;2.53;;;1.57;;
8640;SDS011;4358;42.100;25.222;2023-02-01T08:48:21;2.83;;;1.30;;
8640;SDS011;4358;42.100;25.222;2023-02-01T08:50:48;2.00;;;1.30;;
8640;SDS011;4358;42.100;25.222;2023-02-01T08:53:15;1.97;;;1.30;;
8640;SDS011;4358;42.100;25.222;2023-02-01T08:55:43;2.70;;;1.87;;
8640;SDS011;4358;42.100;25.222;2023-02-01T08:58:11;1.83;;;1.40;;
8640;SDS011;4358;42.100;25.222;2023-02-01T09:00:39;2.20;;;1.30;;
8640;SDS011;4358;42.100;25.222;2023-02-01T09:03:08;1.43;;;1.33;;
8640;SDS011;4358;42.100;25.222;2023-02-01T09:05:37;2.53;;;1.40;;
8640;SDS011;4358;42.100;25.222;2023-02-01T09:08:04;4.30;;;1.40;;
8640;SDS011;4358;42.100;25.222;2023-02-01T09:10:31;1.80;;;1.40;;
8640;SDS011;4358;42.100;25.222;2023-02-01T09:12:59;6.83;;;1.97;;
8640;SDS011;4358;42.100;25.222;2023-02-01T09:15:26;3.27;;;1.77;;
8640;SDS011;4358;42.100;25.222;2023-02-01T09:17:53;2.93;;;1.70;;
8640;SDS011;4358;42.100;25.222;2023-02-01T09:20:20;2.13;;;1.43;;
8640;SDS011;4358;42.100;25.222;2023-02-01T09:22:49;1.90;;;1.70;;
8640;SDS011;4358;42.100;25.222;2023-02-01T09:25:17;2.37;;;1.57;;
8640;SDS011;4358;42.100;25.222;2023-02-01T09:27:44;3.03;;;2.00;;
8640;SDS011;4358;42.100;25.222;2023-02-01T09:30:12;2.37;;;1.20;;
8640;SDS011;4358;42.100;25.222;2023-02-01T09:32:39;2.03;;;1.20;;
8640;SDS011;4358;42.100;25.222;2023-02-01T09:35:06;1.93;;;1.70;;
8640;SDS011;4358;42.100;25.222;2023-02-01T09:37:33;6.47;;;1.97;;
8640;SDS011;4358;42.100;25.222;2023-02-01T09:40:01;1.57;;;1.33;;
8640;SDS011;4358;42.100;25.222;2023-02-01T09:42:42;2.10;;;1.40;;
8640;SDS011;4358;42.100;25.222;2023-02-01T09:45:19;3.63;;;1.23;;
8640;SDS011;4358;42.100;25.222;2023-02-01T09:47:51;2.33;;;1.57;;
8640;SDS011;4358;42.100;25.222;2023-02-01T09:50:22;3.47;;;1.77;;
8640;SDS011;4358;42.100;25.222;2023-02-01T09:53:01;1.50;;;1.40;;
8640;SDS011;4358;42.100;25.222;2023-02-01T09:55:32;2.20;;;1.73;;
8640;SDS011;4358;42.100;25.222;2023-02-01T09:58:06;2.03;;;1.33;;
8640;SDS011;4358;42.100;25.222;2023-02-01T10:00:39;2.53;;;1.60;;
8640;SDS011;4358;42.100;25.222;2023-02-01T10:03:17;2.20;;;1.60;;
8640;SDS011;4358;42.100;25.222;2023-02-01T10:05:49;1.40;;;1.30;;
8640;SDS011;4358;42.100;25.222;2023-02-01T10:08:33;2.37;;;1.70;;
8640;SDS011;4358;42.100;25.222;2023-02-01T10:11:20;2.87;;;1.63;;
8640;SDS011;4358;42.100;25.222;2023-02-01T10:14:14;1.93;;;1.27;;
8640;SDS011;4358;42.100;25.222;2023-02-01T10:16:58;8.97;;;2.90;;
8640;SDS011;4358;42.100;25.222;2023-02-01T10:19:34;2.50;;;1.97;;
8640;SDS011;4358;42.100;25.222;2023-02-01T10:22:09;3.20;;;2.00;;
8640;SDS011;4358;42.100;25.222;2023-02-01T10:24:38;3.60;;;2.20;;
8640;SDS011;4358;42.100;25.222;2023-02-01T10:27:12;1.97;;;1.77;;
8640;SDS011;4358;42.100;25.222;2023-02-01T10:29:41;4.23;;;1.70;;
8640;SDS011;4358;42.100;25.222;2023-02-01T10:32:16;1.90;;;1.37;;
8640;SDS011;4358;42.100;25.222;2023-02-01T10:34:48;1.17;;;1.03;;
8640;SDS011;4358;42.100;25.222;2023-02-01T10:37:22;1.50;;;1.37;;
8640;SDS011;4358;42.100;25.222;2023-02-01T10:39:53;2.80;;;1.50;;
8640;SDS011;4358;42.100;25.222;2023-02-01T10:42:23;1.80;;;1.40;;
8640;SDS011;4358;42.100;25.222;2023-02-01T10:44:52;4.43;;;2.30;;
8640;SDS011;4358;42.100;25.222;2023-02-01T10:47:23;1.40;;;1.30;;
8640;SDS011;4358;42.100;25.222;2023-02-01T10:49:52;3.47;;;2.20;;
8640;SDS011;4358;42.100;25.222;2023-02-01T10:52:27;2.50;;;1.50;;
8640;SDS011;4358;42.100;25.222;2023-02-01T10:57:58;1.63;;;1.10;;
8640;SDS011;4358;42.100;25.222;2023-02-01T11:00:26;5.63;;;1.47;;
8640;SDS011;4358;42.100;25.222;2023-02-01T11:02:55;2.90;;;1.83;;
8640;SDS011;4358;42.100;25.222;2023-02-01T11:05:22;1.63;;;1.10;;
8640;SDS011;4358;42.100;25.222;2023-02-01T11:07:52;2.33;;;1.43;;
8640;SDS011;4358;42.100;25.222;2023-02-01T11:10:34;5.90;;;2.90;;
8640;SDS011;4358;42.100;25.222;2023-02-01T11:13:01;2.60;;;2.10;;
8640;SDS011;4358;42.100;25.222;2023-02-01T11:15:28;1.43;;;1.17;;
8640;SDS011;4358;42.100;25.222;2023-02-01T11:17:56;3.13;;;1.50;;
8640;SDS011;4358;42.100;25.222;2023-02-01T11:20:40;4.70;;;1.53;;
8640;SDS011;4358;42.100;25.222;2023-02-01T11:23:12;3.10;;;1.17;;
8640;SDS011;4358;42.100;25.222;2023-02-01T11:25:47;1.60;;;1.10;;
8640;SDS011;4358;42.100;25.222;2023-02-01T11:28:16;3.83;;;1.27;;
8640;SDS011;4358;42.100;25.222;2023-02-01T11:30:44;2.63;;;1.27;;
8640;SDS011;4358;42.100;25.222;2023-02-01T11:33:15;2.00;;;1.47;;
8640;SDS011;4358;42.100;25.222;2023-02-01T11:35:44;1.80;;;1.10;;
8640;SDS011;4358;42.100;25.222;2023-02-01T11:38:20;1.00;;;0.90;;
8640;SDS011;4358;42.100;25.222;2023-02-01T11:40:51;2.50;;;1.20;;
8640;SDS011;4358;42.100;25.222;2023-02-01T11:43:22;1.87;;;1.20;;
8640;SDS011;4358;42.100;25.222;2023-02-01T11:45:54;1.73;;;1.00;;
8640;SDS011;4358;42.100;25.222;2023-02-01T11:48:25;1.10;;;1.00;;
8640;SDS011;4358;42.100;25.222;2023-02-01T11:50:56;1.63;;;1.30;;
8640;SDS011;4358;42.100;25.222;2023-02-01T11:53:39;1.40;;;1.30;;
8640;SDS011;4358;42.100;25.222;2023-02-01T11:56:22;2.10;;;1.20;;
8640;SDS011;4358;42.100;25.222;2023-02-01T12:01:45;1.43;;;1.20;;
8640;SDS011;4358;42.100;25.222;2023-02-01T12:04:42;1.07;;;1.03;;
8640;SDS011;4358;42.100;25.222;2023-02-01T12:07:23;1.13;;;1.03;;
8640;SDS011;4358;42.100;25.222;2023-02-01T12:10:03;3.63;;;1.90;;
8640;SDS011;4358;42.100;25.222;2023-02-01T12:12:43;2.87;;;1.10;;
8640;SDS011;4358;42.100;25.222;2023-02-01T12:15:25;1.10;;;1.00;;
8640;SDS011;4358;42.100;25.222;2023-02-01T12:18:00;1.27;;;0.80;;
8640;SDS011;4358;42.100;25.222;2023-02-01T12:20:50;0.80;;;0.80;;
8640;SDS011;4358;42.100;25.222;2023-02-01T12:23:32;2.00;;;1.80;;
8640;SDS011;4358;42.100;25.222;2023-02-01T12:26:13;2.10;;;1.03;;
8640;SDS011;4358;42.100;25.222;2023-02-01T12:29:07;1.57;;;1.10;;
8640;SDS011;4358;42.100;25.222;2023-02-01T12:31:50;4.23;;;1.00;;
8640;SDS011;4358;42.100;25.222;2023-02-01T12:34:38;2.70;;;1.53;;
8640;SDS011;4358;42.100;25.222;2023-02-01T12:37:20;3.33;;;1.53;;
8640;SDS011;4358;42.100;25.222;2023-02-01T12:40:04;3.30;;;1.13;;
8640;SDS011;4358;42.100;25.222;2023-02-01T12:42:41;1.27;;;1.17;;
8640;SDS011;4358;42.100;25.222;2023-02-01T12:45:13;1.80;;;1.07;;
8640;SDS011;4358;42.100;25.222;2023-02-01T12:47:44;1.20;;;1.03;;
8640;SDS011;4358;42.100;25.222;2023-02-01T12:50:17;1.10;;;1.00;;
8640;SDS011;4358;42.100;25.222;2023-02-01T12:52:49;1.20;;;1.10;;
8640;SDS011;4358;42.100;25.222;2023-02-01T12:55:20;1.40;;;1.30;;
8640;SDS011;4358;42.100;25.222;2023-02-01T12:57:50;2.17;;;1.60;;
8640;SDS011;4358;42.100;25.222;2023-02-01T13:00:22;3.43;;;1.73;;
8640;SDS011;4358;42.100;25.222;2023-02-01T13:02:59;3.83;;;1.67;;
8640;SDS011;4358;42.100;25.222;2023-02-01T13:05:34;1.70;;;1.40;;
8640;SDS011;4358;42.100;25.222;2023-02-01T13:08:11;1.60;;;1.03;;
8640;SDS011;4358;42.100;25.222;2023-02-01T13:10:42;2.70;;;1.00;;
8640;SDS011;4358;42.100;25.222;2023-02-01T13:13:14;2.47;;;1.30;;
8640;SDS011;4358;42.100;25.222;2023-02-01T13:15:48;2.77;;;1.50;;
8640;SDS011;4358;42.100;25.222;2023-02-01T13:18:22;4.17;;;1.03;;
8640;SDS011;4358;42.100;25.222;2023-02-01T13:20:53;1.00;;;0.90;;
8640;SDS011;4358;42.100;25.222;2023-02-01T13:23:30;1.53;;;0.90;;
8640;SDS011;4358;42.100;25.222;2023-02-01T13:26:00;1.30;;;1.10;;
8640;SDS011;4358;42.100;25.222;2023-02-01T13:28:28;1.83;;;1.67;;
8640;SDS011;4358;42.100;25.222;2023-02-01T13:31:02;3.40;;;1.33;;
8640;SDS011;4358;42.100;25.222;2023-02-01T13:37:09;1.27;;;1.17;;
8640;SDS011;4358;42.100;25.222;2023-02-01T13:39:53;1.40;;;1.30;;
8640;SDS011;4358;42.100;25.222;2023-02-01T13:42:41;1.30;;;1.17;;
8640;SDS011;4358;42.100;25.222;2023-02-01T13:45:14;1.40;;;1.10;;
8640;SDS011;4358;42.100;25.222;2023-02-01T13:47:43;3.00;;;1.20;;
8640;SDS011;4358;42.100;25.222;2023-02-01T13:50:16;1.97;;;1.40;;
8640;SDS011;4358;42.100;25.222;2023-02-01T13:52:51;1.20;;;1.10;;
8640;SDS011;4358;42.100;25.222;2023-02-01T13:55:29;2.50;;;1.50;;
8640;SDS011;4358;42.100;25.222;2023-02-01T13:58:05;1.90;;;1.23;;
8640;SDS011;4358;42.100;25.222;2023-02-01T14:00:43;0.90;;;0.90;;
8640;SDS011;4358;42.100;25.222;2023-02-01T14:03:12;2.13;;;1.23;;
8640;SDS011;4358;42.100;25.222;2023-02-01T14:05:55;2.17;;;1.33;;
8640;SDS011;4358;42.100;25.222;2023-02-01T14:08:41;1.50;;;1.30;;
8640;SDS011;4358;42.100;25.222;2023-02-01T14:11:35;1.57;;;1.20;;
8640;SDS011;4358;42.100;25.222;2023-02-01T14:23:15;3.67;;;2.17;;
8640;SDS011;4358;42.100;25.222;2023-02-01T14:25:48;3.37;;;1.90;;
8640;SDS011;4358;42.100;25.222;2023-02-01T14:28:49;2.30;;;1.80;;
8640;SDS011;4358;42.100;25.222;2023-02-01T14:34:11;1.90;;;1.70;;
8640;SDS011;4358;42.100;25.222;2023-02-01T14:36:47;2.80;;;1.20;;
8640;SDS011;4358;42.100;25.222;2023-02-01T14:42:05;1.50;;;1.40;;
8640;SDS011;4358;42.100;25.222;2023-02-01T14:44:45;2.40;;;1.20;;
8640;SDS011;4358;42.100;25.222;2023-02-01T14:49:59;0.90;;;0.90;;
8640;SDS011;4358;42.100;25.222;2023-02-01T14:52:36;1.10;;;1.00;;
8640;SDS011;4358;42.100;25.222;2023-02-01T14:55:10;1.80;;;1.40;;
8640;SDS011;4358;42.100;25.222;2023-02-01T14:57:41;4.07;;;1.27;;
8640;SDS011;4358;42.100;25.222;2023-02-01T15:00:16;2.97;;;1.40;;
8640;SDS011;4358;42.100;25.222;2023-02-01T15:02:47;1.30;;;1.20;;
8640;SDS011;4358;42.100;25.222;2023-02-01T15:05:21;1.57;;;1.00;;
8640;SDS011;4358;42.100;25.222;2023-02-01T15:07:51;1.50;;;1.40;;
8640;SDS011;4358;42.100;25.222;2023-02-01T15:10:19;2.37;;;1.00;;
8640;SDS011;4358;42.100;25.222;2023-02-01T15:12:47;1.43;;;1.07;;
8640;SDS011;4358;42.100;25.222;2023-02-01T15:15:17;1.27;;;1.10;;
8640;SDS011;4358;42.100;25.222;2023-02-01T15:17:50;1.60;;;1.10;;
8640;SDS011;4358;42.100;25.222;2023-02-01T15:20:19;1.33;;;1.00;;
8640;SDS011;4358;42.100;25.222;2023-02-01T15:22:52;2.00;;;1.27;;
8640;SDS011;4358;42.100;25.222;2023-02-01T15:25:21;2.73;;;1.30;;
8640;SDS011;4358;42.100;25.222;2023-02-01T15:27:49;3.27;;;1.07;;
8640;SDS011;4358;42.100;25.222;2023-02-01T15:30:19;1.77;;;1.20;;
8640;SDS011;4358;42.100;25.222;2023-02-01T15:32:48;1.37;;;1.20;;
8640;SDS011;4358;42.100;25.222;2023-02-01T15:35:32;1.47;;;1.00;;
8640;SDS011;4358;42.100;25.222;2023-02-01T15:41:13;2.90;;;1.73;;
8640;SDS011;4358;42.100;25.222;2023-02-01T15:43:41;3.17;;;1.57;;
8640;SDS011;4358;42.100;25.222;2023-02-01T15:46:12;2.07;;;1.50;;
8640;SDS011;4358;42.100;25.222;2023-02-01T15:48:43;4.57;;;2.50;;
8640;SDS011;4358;42.100;25.222;2023-02-01T15:51:12;4.30;;;2.20;;
8640;SDS011;4358;42.100;25.222;2023-02-01T15:53:43;4.47;;;1.97;;
8640;SDS011;4358;42.100;25.222;2023-02-01T15:56:12;4.43;;;1.97;;
8640;SDS011;4358;42.100;25.222;2023-02-01T15:58:41;3.67;;;2.37;;